createdAt,value
2022-09-06T00:02:03.048Z,3.88
2022-09-06T00:12:06.042Z,3.95
2022-09-06T00:32:36.256Z,3.47
2022-09-06T00:42:39.089Z,4.00
2022-09-06T00:52:43.277Z,3.90
2022-09-06T01:02:46.193Z,3.75
2022-09-06T01:12:58.854Z,4.10
2022-09-06T01:23:26.201Z,3.70
2022-09-06T01:33:38.644Z,4.00
2022-09-06T01:43:46.122Z,4.15
2022-09-06T01:54:19.342Z,4.10
2022-09-06T02:04:27.633Z,3.60
2022-09-06T02:15:07.247Z,4.13
2022-09-06T02:25:13.449Z,3.75
2022-09-06T02:35:16.921Z,3.90
2022-09-06T02:45:21.034Z,4.07
2022-09-06T02:55:24.075Z,4.28
2022-09-06T03:05:27.916Z,4.63
2022-09-06T03:15:31.096Z,4.82
2022-09-06T03:25:34.150Z,5.22
2022-09-06T03:35:40.088Z,6.38
2022-09-06T03:45:48.551Z,5.53
2022-09-06T03:55:54.315Z,4.95
2022-09-06T04:05:57.068Z,5.70
2022-09-06T04:15:59.698Z,5.28
2022-09-06T04:26:03.621Z,5.75
2022-09-06T04:36:09.894Z,5.97
2022-09-06T04:46:18.294Z,5.57
2022-09-06T04:56:23.766Z,6.28
2022-09-06T05:06:26.914Z,6.72
2022-09-06T05:16:30.120Z,5.70
2022-09-06T05:26:33.097Z,5.32
2022-09-06T05:36:36.139Z,5.05
2022-09-06T05:46:45.373Z,5.10
2022-09-06T05:56:48.097Z,4.43
2022-09-06T06:06:51.135Z,5.25
2022-09-06T06:16:54.193Z,5.70
2022-09-06T06:26:57.080Z,5.05
2022-09-06T06:37:00.160Z,5.32
2022-09-06T06:47:02.933Z,5.25
2022-09-06T06:57:05.983Z,5.25
2022-09-06T07:17:32.103Z,5.20
2022-09-06T07:27:50.490Z,4.78
2022-09-06T07:37:58.207Z,4.40
2022-09-06T07:48:01.170Z,4.50
2022-09-06T07:58:04.067Z,4.75
2022-09-06T08:18:30.184Z,4.40
2022-09-06T08:28:33.168Z,4.65
2022-09-06T08:38:36.171Z,4.80
2022-09-06T08:48:40.117Z,4.95
2022-09-06T08:59:04.170Z,4.97
2022-09-06T09:09:09.072Z,4.13
2022-09-06T09:19:12.177Z,3.95
2022-09-06T09:29:15.973Z,4.40
2022-09-06T09:39:19.578Z,4.20
2022-09-06T09:49:22.089Z,4.35
2022-09-06T09:59:34.420Z,3.63
2022-09-06T10:09:40.057Z,3.80
2022-09-06T10:19:45.958Z,3.35
2022-09-06T10:29:58.638Z,3.50
2022-09-06T10:40:10.450Z,3.30
2022-09-06T10:50:16.126Z,3.60
2022-09-06T11:00:19.167Z,3.50
2022-09-06T11:10:30.704Z,3.08
2022-09-06T11:20:39.703Z,3.22
2022-09-06T11:30:52.736Z,3.25
2022-09-06T11:41:12.159Z,3.03
2022-09-06T11:51:36.115Z,3.00
2022-09-06T12:02:42.951Z,3.05
2022-09-06T12:12:52.750Z,2.78
2022-09-06T12:22:55.297Z,2.70
2022-09-06T12:32:59.087Z,3.08
2022-09-06T12:43:04.437Z,3.00
2022-09-06T12:53:24.762Z,3.00
2022-09-06T13:03:38.183Z,2.92
2022-09-06T13:13:49.354Z,2.80
2022-09-06T13:23:54.227Z,2.72
2022-09-06T13:33:59.312Z,3.17
2022-09-06T13:44:04.810Z,3.03
2022-09-06T13:54:13.157Z,3.00
2022-09-06T14:04:21.621Z,3.05
2022-09-06T14:14:25.192Z,3.20
2022-09-06T14:24:33.620Z,2.92
2022-09-06T14:34:36.161Z,2.72
2022-09-06T14:45:33.831Z,3.35
2022-09-06T15:07:20.503Z,2.58
2022-09-06T15:17:40.424Z,3.30
2022-09-06T15:27:44.357Z,3.35
2022-09-06T15:37:53.756Z,3.95
2022-09-06T15:48:16.395Z,3.22
2022-09-06T15:58:19.053Z,3.13
2022-09-06T16:08:22.096Z,3.40
2022-09-06T16:18:26.261Z,4.40
2022-09-06T16:28:31.000Z,3.55
2022-09-06T16:38:39.015Z,3.85
2022-09-06T16:58:50.647Z,3.45
2022-09-06T17:09:04.369Z,4.10
2022-09-06T17:19:09.426Z,4.60
2022-09-06T17:29:15.029Z,4.63
2022-09-06T17:39:24.299Z,3.80
2022-09-06T17:49:28.966Z,4.47
2022-09-06T17:59:35.833Z,4.20
2022-09-06T18:09:42.220Z,5.60
2022-09-06T18:19:45.558Z,5.68
2022-09-06T18:29:48.549Z,5.43
2022-09-06T18:39:53.892Z,6.22
2022-09-06T18:49:56.802Z,6.00
2022-09-06T18:59:59.936Z,6.30
2022-09-06T19:10:03.607Z,5.05
2022-09-06T19:20:11.476Z,4.55
2022-09-06T19:30:15.394Z,4.57
2022-09-06T19:40:18.877Z,4.65
2022-09-06T19:50:27.507Z,4.53
2022-09-06T20:00:35.689Z,4.43
2022-09-06T20:10:39.368Z,5.15
2022-09-06T20:20:42.171Z,4.95
2022-09-06T20:30:45.401Z,4.97
2022-09-06T20:41:02.246Z,5.65
2022-09-06T20:51:13.658Z,5.40
2022-09-06T21:01:23.005Z,5.40
2022-09-06T21:11:35.134Z,5.60
2022-09-06T21:21:38.549Z,5.43
2022-09-06T21:31:41.212Z,5.43
2022-09-06T21:41:45.414Z,5.07
2022-09-06T21:51:49.668Z,5.55
2022-09-06T22:01:53.216Z,5.60
2022-09-06T22:11:56.179Z,5.60
2022-09-06T22:32:04.454Z,6.22
2022-09-06T22:42:07.183Z,5.82
2022-09-06T22:52:10.270Z,5.25
2022-09-06T23:02:12.745Z,5.40
2022-09-06T23:12:15.265Z,5.55
2022-09-06T23:22:28.199Z,5.78
2022-09-06T23:32:33.385Z,5.15
2022-09-06T23:42:35.891Z,4.60
2022-09-06T23:52:41.406Z,4.57
